METAR és
SPECI
METAR LHBP 280630Z VRB01KT 1800 -RA BR BKN040 05/05 Q1017 TEMPO 1500 -RA BCFG BR=
METAR LHBP 280600Z VRB02KT 2000 -RA BR BKN005 OVC014 05/05 Q1016 TEMPO 1500 -RA BCFG BR=
METAR LHBP 280530Z VRB02KT 2500 -RA BR FEW006 OVC014 05/05 Q1016 TEMPO 1500 -RA BCFG BR=
METAR LHBP 280500Z VRB01KT 3500 -RA BR OVC025 05/05 Q1016 TEMPO 2000 -RA BR=
METAR LHBP 280430Z VRB01KT 3500 -RA BR FEW006 OVC022 05/05 Q1016 NOSIG=
METAR LHBP 280400Z 00000KT 4000 -RA BR SCT006 OVC023 04/04 Q1016 TEMPO 3000 -RA BR=
TAF
TAF LHBP 280500Z 2806/0106 VRB03KT 3000 -RA BR SCT005 OVC020 TEMPO 2806/2809 1500 -RA BR BKN004 OVC015 BECMG 2809/2811 01006KT 9999 NSW BKN040 TEMPO 2812/2816 CAVOK BECMG 2816/2819 VRB03KT 5000 BR BKN025 TEMPO 2823/0106 1200 BCFG BR BKN005=
GAMET
FAHU41 LHBM 280500
LHCC GAMET VALID 280600/281200 LHBP-
BUDAPEST FIR BLW FL100
SECN 1
SFC VIS: 2000-5000M RA BR
SE OF LINE N4700 E01620 - N4750 E01850 AND
SW OF LINE N4830 E02100 - N4750 E02230
ICE: MOD 3000/8000 FT AMSL
SE OF LINE N4700 E01620 - N4750 E01850 AND
SW OF LINE N4830 E02100 - N4750 E02230
TURB: MOD SFC/6000 FT AMSL W OF E01800
SIGMETS APPLICABLE: NIL=
OMSZ: 2015. február 28. 05:56 (04:56  UTC)
[FAHU41]
AIRMET
Nincs érvényes távirat! 
WAHU41 LHBM 231000
LHCC AIRMET 01 VALID 231000/231200 LHBP-
LHCC BUDAPEST FIR SFC VIS 0800-2000M DZ FG BR W OF N4611
E02000 - N4730 E02000 - N4823 E02200=
SIGMET
Nincs érvényes távirat! 
WSHU31 LHBM 241900
LHCC SIGMET 01 VALID 241900/242100 LHBP-
LHCC BUDAPEST FIR SEV TURB OBS AND FCST FL350/400
WI N4744 E01820 - N4814 E01935 - N4700 E01900 -
N4700 E01820 - N4744 E01820 STNR WKN=
SIGMET
Vulkáni hamufelhő
Nincs érvényes távirat! 
WVHU31 LHBM 271515 CCA
LHCC SIGMET 03 VALID 271515/271800 LHBP-
LHCC BUDAPEST FIR EXERCISE VOLCEX12/01
CNL VA SIGMET 02 271200/271800
EXERCISE EXERCISE EXERCISE VOLCEX12/01=